createdAt,value
2024-03-03T00:01:51.973Z,78.26
2024-03-03T00:04:19.557Z,78.32
2024-03-03T00:06:47.524Z,78.31
2024-03-03T00:09:14.979Z,78.01
2024-03-03T00:11:42.207Z,77.06
2024-03-03T00:14:09.533Z,76.75
2024-03-03T00:16:42.055Z,77.08
2024-03-03T00:19:10.049Z,77.08
2024-03-03T00:21:37.466Z,77.36
2024-03-03T00:24:05.313Z,77.38
2024-03-03T00:26:34.563Z,77.43
2024-03-03T00:29:02.353Z,77.44
2024-03-03T00:31:29.648Z,77.07
2024-03-03T00:33:57.125Z,76.44
2024-03-03T00:36:25.534Z,76.95
2024-03-03T00:38:52.756Z,77.42
2024-03-03T00:41:20.355Z,77.90
2024-03-03T00:43:47.776Z,77.91
2024-03-03T00:46:15.139Z,77.09
2024-03-03T00:48:43.094Z,76.76
2024-03-03T00:51:10.641Z,76.65
2024-03-03T00:53:38.005Z,76.64
2024-03-03T00:56:06.892Z,76.58
2024-03-03T00:58:34.555Z,76.45
2024-03-03T01:01:01.956Z,77.27
2024-03-03T01:03:33.592Z,77.89
2024-03-03T01:06:01.257Z,78.20
2024-03-03T01:08:28.605Z,78.35
2024-03-03T01:10:56.188Z,78.67
2024-03-03T01:13:31.714Z,78.98
2024-03-03T01:15:59.148Z,78.01
2024-03-03T01:18:26.738Z,78.23
2024-03-03T01:20:54.118Z,77.78
2024-03-03T01:23:21.600Z,77.57
2024-03-03T01:25:51.586Z,76.80
2024-03-03T01:28:19.665Z,76.83
2024-03-03T01:30:47.131Z,75.76
2024-03-03T01:33:14.586Z,76.21
2024-03-03T01:35:41.947Z,76.63
2024-03-03T01:38:09.324Z,77.02
2024-03-03T01:40:36.910Z,77.54
2024-03-03T01:43:06.097Z,77.77
2024-03-03T01:45:33.632Z,77.66
2024-03-03T01:48:01.482Z,77.71
2024-03-03T01:50:30.510Z,77.50
2024-03-03T01:52:58.380Z,77.36
2024-03-03T01:55:26.509Z,77.13
2024-03-03T01:57:58.274Z,76.97
2024-03-03T02:00:26.929Z,77.19
2024-03-03T02:02:54.449Z,77.31
2024-03-03T02:05:24.854Z,77.62
2024-03-03T02:07:53.486Z,77.71
2024-03-03T02:10:23.659Z,76.75
2024-03-03T02:12:53.671Z,76.92
2024-03-03T02:15:24.371Z,76.25
2024-03-03T02:17:53.900Z,76.12
2024-03-03T02:20:21.651Z,76.10
2024-03-03T02:22:52.185Z,76.12
2024-03-03T02:25:19.799Z,74.76
2024-03-03T02:27:50.314Z,74.62
2024-03-03T02:30:17.856Z,74.90
2024-03-03T02:32:52.094Z,74.28
2024-03-03T02:35:21.112Z,73.80
2024-03-03T02:37:48.870Z,73.99
2024-03-03T02:40:16.697Z,74.78
2024-03-03T02:42:44.203Z,74.34
2024-03-03T02:45:11.781Z,73.81
2024-03-03T02:47:39.640Z,73.97
2024-03-03T02:50:07.768Z,74.29
2024-03-03T02:52:35.870Z,74.53
2024-03-03T02:55:03.673Z,74.53
2024-03-03T02:57:31.381Z,73.68
2024-03-03T02:59:58.857Z,73.80
2024-03-03T03:02:26.416Z,73.85
2024-03-03T03:04:54.089Z,74.28
2024-03-03T03:07:21.329Z,74.35
2024-03-03T03:09:48.814Z,74.53
2024-03-03T03:12:16.358Z,74.39
2024-03-03T03:14:44.538Z,74.70
2024-03-03T03:17:12.108Z,74.53
2024-03-03T03:19:39.705Z,74.80
2024-03-03T03:22:10.418Z,74.91
2024-03-03T03:24:37.930Z,75.26
2024-03-03T03:27:06.359Z,75.46
2024-03-03T03:29:33.821Z,76.08
2024-03-03T03:32:01.068Z,76.44
2024-03-03T03:34:31.507Z,76.71
2024-03-03T03:36:59.088Z,76.88
2024-03-03T03:39:26.937Z,77.06
2024-03-03T03:41:54.422Z,77.12
2024-03-03T03:44:22.283Z,77.29
2024-03-03T03:46:49.832Z,77.43
2024-03-03T03:49:17.537Z,77.35
2024-03-03T03:51:45.223Z,77.06
2024-03-03T03:54:12.956Z,76.83
2024-03-03T03:56:40.374Z,76.45
2024-03-03T03:59:10.424Z,76.97
2024-03-03T04:01:38.044Z,76.64
2024-03-03T04:04:05.951Z,77.09
2024-03-03T04:06:33.522Z,76.82
2024-03-03T04:09:04.070Z,76.69
2024-03-03T04:11:31.834Z,76.97
2024-03-03T04:13:59.327Z,77.22
2024-03-03T04:16:27.012Z,76.99
2024-03-03T04:18:54.564Z,77.26
2024-03-03T04:21:22.187Z,76.72
2024-03-03T04:23:49.510Z,76.63
2024-03-03T04:26:16.921Z,76.35
2024-03-03T04:28:44.498Z,76.21
2024-03-03T04:31:11.914Z,76.43
2024-03-03T04:33:39.887Z,76.43
2024-03-03T04:36:13.009Z,76.79
2024-03-03T04:38:46.303Z,76.95
2024-03-03T04:41:17.643Z,76.87
2024-03-03T04:43:47.237Z,76.36
2024-03-03T04:46:19.485Z,76.24
2024-03-03T04:48:47.648Z,76.43
2024-03-03T04:51:15.369Z,75.84
2024-03-03T04:53:42.815Z,75.56
2024-03-03T04:56:10.402Z,75.87
2024-03-03T04:58:37.688Z,75.66
2024-03-03T05:01:05.522Z,75.63
2024-03-03T05:03:32.993Z,75.39
2024-03-03T05:06:00.451Z,75.23
2024-03-03T05:08:27.843Z,74.80
2024-03-03T05:10:55.124Z,74.89
2024-03-03T05:13:22.368Z,74.70
2024-03-03T05:15:49.869Z,75.03
2024-03-03T05:18:19.323Z,74.48
2024-03-03T05:20:46.682Z,74.68
2024-03-03T05:23:14.150Z,74.26
2024-03-03T05:25:42.127Z,74.33
2024-03-03T05:28:09.578Z,74.61
2024-03-03T05:30:38.291Z,74.89
2024-03-03T05:33:07.503Z,75.17
2024-03-03T05:35:37.895Z,75.51
2024-03-03T05:38:05.853Z,75.51
2024-03-03T05:40:33.204Z,75.38
2024-03-03T05:43:01.772Z,75.49
2024-03-03T05:45:29.137Z,75.66
2024-03-03T05:47:56.540Z,75.84
2024-03-03T05:50:23.800Z,76.00
2024-03-03T05:52:51.094Z,76.45
2024-03-03T05:55:18.610Z,76.89
2024-03-03T05:57:48.500Z,78.27
2024-03-03T06:00:17.343Z,79.27
2024-03-03T06:02:46.878Z,79.39
2024-03-03T06:05:14.137Z,80.01
2024-03-03T06:07:41.461Z,79.50
2024-03-03T06:10:09.149Z,80.80
2024-03-03T06:12:36.530Z,80.51
2024-03-03T06:15:04.033Z,81.11
2024-03-03T06:17:31.694Z,81.81
2024-03-03T06:19:59.228Z,82.87
2024-03-03T06:22:26.617Z,82.06
2024-03-03T06:24:56.825Z,82.18
2024-03-03T06:27:24.203Z,82.00
2024-03-03T06:29:51.773Z,82.25
2024-03-03T06:32:19.334Z,83.11
2024-03-03T06:34:48.565Z,83.21
2024-03-03T06:37:16.940Z,83.52
2024-03-03T06:39:45.850Z,82.81
2024-03-03T06:42:13.454Z,82.89
2024-03-03T06:44:44.123Z,82.73
2024-03-03T06:47:11.548Z,82.81
2024-03-03T06:49:39.000Z,83.37
2024-03-03T06:52:06.450Z,84.74
2024-03-03T06:54:34.229Z,84.78
2024-03-03T06:57:01.620Z,85.52
2024-03-03T06:59:29.058Z,84.82
2024-03-03T07:01:56.545Z,84.44
2024-03-03T07:04:26.910Z,84.74
2024-03-03T07:06:55.560Z,85.10
2024-03-03T07:09:28.308Z,85.63
2024-03-03T07:11:56.910Z,87.17
2024-03-03T07:14:25.189Z,82.22
2024-03-03T07:16:52.647Z,82.54
2024-03-03T07:19:20.238Z,83.55
2024-03-03T07:21:47.918Z,85.55
2024-03-03T07:24:28.654Z,86.29
2024-03-03T07:26:57.026Z,86.16
2024-03-03T07:29:25.009Z,83.87
2024-03-03T07:31:53.284Z,79.39
2024-03-03T07:34:20.664Z,82.83
2024-03-03T07:36:48.145Z,86.31
2024-03-03T07:39:16.922Z,85.65
2024-03-03T07:41:45.075Z,79.92
2024-03-03T07:44:12.726Z,85.02
2024-03-03T07:46:40.724Z,81.17
2024-03-03T07:49:07.968Z,82.34
2024-03-03T07:51:36.167Z,85.32
2024-03-03T07:54:03.714Z,82.96
2024-03-03T07:56:33.836Z,79.31
2024-03-03T07:59:07.059Z,74.87
2024-03-03T08:01:37.696Z,76.16
2024-03-03T08:04:06.029Z,84.58
2024-03-03T08:06:34.016Z,82.90
2024-03-03T08:09:05.262Z,79.18
2024-03-03T08:11:35.064Z,75.72
2024-03-03T08:14:05.957Z,80.65
2024-03-03T08:16:35.243Z,80.76
2024-03-03T08:19:02.729Z,76.54
2024-03-03T08:21:33.127Z,73.89
2024-03-03T08:24:02.969Z,80.25
2024-03-03T08:26:30.913Z,76.60
2024-03-03T08:28:58.787Z,75.56
2024-03-03T08:31:26.298Z,82.79
2024-03-03T08:33:56.741Z,80.99
2024-03-03T08:36:24.853Z,80.33
2024-03-03T08:38:52.415Z,80.43
2024-03-03T08:41:21.019Z,78.72
2024-03-03T08:43:48.465Z,70.04
2024-03-03T08:46:20.468Z,73.67
2024-03-03T08:48:48.242Z,77.46
2024-03-03T08:51:19.240Z,81.05
2024-03-03T08:53:49.393Z,77.83
2024-03-03T08:56:17.154Z,69.38
2024-03-03T08:58:44.622Z,73.09
2024-03-03T09:01:16.247Z,70.99
2024-03-03T09:03:43.957Z,69.00
2024-03-03T09:06:11.496Z,72.33
2024-03-03T09:08:39.465Z,76.40
2024-03-03T09:11:08.175Z,78.40
2024-03-03T09:13:35.941Z,78.11
2024-03-03T09:16:03.765Z,75.06
2024-03-03T09:18:31.492Z,70.15
2024-03-03T09:20:58.874Z,70.76
2024-03-03T09:23:26.277Z,74.51
2024-03-03T09:25:54.958Z,73.07
2024-03-03T09:28:22.890Z,67.11
2024-03-03T09:30:50.540Z,68.50
2024-03-03T09:33:18.214Z,73.73
2024-03-03T09:35:45.755Z,66.64
2024-03-03T09:38:15.659Z,62.27
2024-03-03T09:40:44.879Z,63.25
2024-03-03T09:43:18.047Z,64.55
2024-03-03T09:45:52.022Z,59.93
2024-03-03T09:48:23.033Z,63.55
2024-03-03T09:50:53.260Z,66.67
2024-03-03T09:53:28.165Z,71.10
2024-03-03T09:55:58.815Z,72.51
2024-03-03T09:58:26.094Z,59.13
2024-03-03T10:00:54.985Z,66.20
2024-03-03T10:03:34.290Z,63.80
2024-03-03T10:06:06.462Z,68.01
2024-03-03T10:08:35.400Z,66.60
2024-03-03T10:11:09.903Z,58.75
2024-03-03T10:13:37.637Z,58.65
2024-03-03T10:16:10.691Z,58.27
2024-03-03T10:18:38.207Z,60.91
2024-03-03T10:21:06.188Z,60.66
2024-03-03T10:23:34.043Z,62.74
2024-03-03T10:26:03.267Z,67.72
2024-03-03T10:28:30.752Z,64.35
2024-03-03T10:31:17.226Z,62.93
2024-03-03T10:33:56.453Z,61.47
2024-03-03T10:36:29.646Z,59.71
2024-03-03T10:38:57.038Z,61.75
2024-03-03T10:41:24.383Z,61.47
2024-03-03T10:43:52.757Z,58.27
2024-03-03T10:46:21.928Z,56.39
2024-03-03T10:48:49.823Z,53.08
2024-03-03T10:51:20.872Z,56.27
2024-03-03T10:53:53.055Z,52.98
2024-03-03T10:56:22.516Z,58.00
2024-03-03T10:58:51.455Z,53.89
2024-03-03T11:01:20.117Z,57.71
2024-03-03T11:03:50.494Z,61.22
2024-03-03T11:06:18.321Z,52.43
2024-03-03T11:08:53.689Z,54.47
2024-03-03T11:11:30.218Z,52.86
2024-03-03T11:14:09.148Z,52.38
2024-03-03T11:16:38.680Z,56.03
2024-03-03T11:19:14.603Z,52.79
2024-03-03T11:21:52.209Z,51.57
2024-03-03T11:24:30.630Z,53.44
2024-03-03T11:27:15.172Z,56.12
2024-03-03T11:29:46.632Z,54.56
2024-03-03T11:32:15.560Z,58.41
2024-03-03T11:34:45.458Z,57.98
2024-03-03T11:37:14.660Z,58.31
2024-03-03T11:40:01.560Z,49.24
2024-03-03T11:42:40.905Z,55.10
2024-03-03T11:45:10.579Z,50.61
2024-03-03T11:47:40.988Z,52.52
2024-03-03T11:50:21.867Z,51.50
2024-03-03T11:52:49.945Z,54.23
2024-03-03T11:55:29.585Z,48.78
2024-03-03T11:58:00.263Z,55.73
2024-03-03T12:00:29.770Z,55.79
2024-03-03T12:02:58.960Z,52.36
2024-03-03T12:05:27.260Z,56.67
2024-03-03T12:07:56.737Z,55.52
2024-03-03T12:10:31.889Z,56.53
2024-03-03T12:13:02.485Z,56.57
2024-03-03T12:15:30.826Z,58.74
2024-03-03T12:18:00.442Z,60.21
2024-03-03T12:20:31.223Z,58.27
2024-03-03T12:22:58.654Z,60.60
2024-03-03T12:25:26.944Z,61.65
2024-03-03T12:27:57.018Z,57.67
2024-03-03T12:30:31.193Z,58.93
2024-03-03T12:32:59.603Z,58.56
2024-03-03T12:35:27.237Z,59.44
2024-03-03T12:37:55.063Z,58.07
2024-03-03T12:40:22.419Z,59.32
2024-03-03T12:42:53.323Z,58.49
2024-03-03T12:45:21.248Z,60.95
2024-03-03T12:47:51.773Z,61.85
2024-03-03T12:50:20.582Z,62.57
2024-03-03T12:52:49.232Z,63.09
2024-03-03T12:55:17.469Z,60.34
2024-03-03T12:57:45.739Z,61.05
2024-03-03T13:00:18.168Z,62.39
2024-03-03T13:02:45.794Z,63.08
2024-03-03T13:05:18.804Z,59.05
2024-03-03T13:07:53.927Z,56.97
2024-03-03T13:10:22.573Z,60.11
2024-03-03T13:12:51.763Z,63.16
2024-03-03T13:15:20.829Z,62.95
2024-03-03T13:18:14.740Z,64.06
2024-03-03T13:20:43.160Z,60.35
2024-03-03T13:23:16.152Z,55.16
2024-03-03T13:25:44.909Z,56.01
2024-03-03T13:28:19.313Z,54.97
2024-03-03T13:31:00.718Z,56.47
2024-03-03T13:33:32.209Z,55.06
2024-03-03T13:36:01.609Z,58.07
2024-03-03T13:38:29.259Z,58.08
2024-03-03T13:40:56.653Z,59.02
2024-03-03T13:43:24.314Z,60.24
2024-03-03T13:45:52.009Z,59.66
2024-03-03T13:48:19.735Z,58.48
2024-03-03T13:50:47.086Z,58.08
2024-03-03T13:53:23.277Z,58.69
2024-03-03T13:55:54.195Z,59.10
2024-03-03T13:58:23.230Z,59.85
2024-03-03T14:00:50.682Z,59.23
2024-03-03T14:03:17.897Z,59.76
2024-03-03T14:05:45.266Z,61.15
2024-03-03T14:08:14.275Z,61.29
2024-03-03T14:10:41.641Z,60.45
2024-03-03T14:13:09.088Z,60.86
2024-03-03T14:15:36.342Z,61.11
2024-03-03T14:18:04.105Z,59.93
2024-03-03T14:20:31.370Z,60.67
2024-03-03T14:22:58.662Z,59.46
2024-03-03T14:25:29.246Z,60.09
2024-03-03T14:28:04.681Z,60.38
2024-03-03T14:30:39.331Z,60.63
2024-03-03T14:33:06.660Z,56.26
2024-03-03T14:35:34.467Z,56.77
2024-03-03T14:38:02.769Z,57.25
2024-03-03T14:40:30.244Z,55.37
2024-03-03T14:42:58.155Z,55.73
2024-03-03T14:45:26.272Z,57.17
2024-03-03T14:47:53.571Z,57.69
2024-03-03T14:50:21.534Z,56.23
2024-03-03T14:52:49.058Z,57.82
2024-03-03T14:55:18.021Z,58.39
2024-03-03T14:57:46.117Z,57.70
2024-03-03T15:00:14.164Z,56.38
2024-03-03T15:02:41.711Z,55.62
2024-03-03T15:05:09.157Z,56.03
2024-03-03T15:07:36.903Z,56.60
2024-03-03T15:10:08.462Z,55.98
2024-03-03T15:12:36.036Z,56.23
2024-03-03T15:15:04.268Z,56.80
2024-03-03T15:17:31.829Z,57.03
2024-03-03T15:19:59.139Z,58.27
2024-03-03T15:22:26.899Z,57.82
2024-03-03T15:24:54.457Z,57.82
2024-03-03T15:27:21.818Z,57.61
2024-03-03T15:29:49.376Z,57.65
2024-03-03T15:32:16.943Z,57.84
2024-03-03T15:34:44.125Z,57.80
2024-03-03T15:37:12.070Z,58.77
2024-03-03T15:39:40.292Z,58.66
2024-03-03T15:42:16.105Z,59.49
2024-03-03T15:44:49.399Z,60.14
2024-03-03T15:47:17.400Z,60.38
2024-03-03T15:49:45.343Z,60.33
2024-03-03T15:52:12.707Z,61.16
2024-03-03T15:54:40.203Z,61.15
2024-03-03T15:57:07.652Z,62.18
2024-03-03T15:59:35.186Z,64.39
2024-03-03T16:02:03.635Z,63.76
2024-03-03T16:04:31.000Z,64.58
2024-03-03T16:07:03.185Z,64.61
2024-03-03T16:09:30.817Z,64.15
2024-03-03T16:11:58.256Z,64.24
2024-03-03T16:14:25.534Z,64.49
2024-03-03T16:16:53.062Z,64.56
2024-03-03T16:19:20.706Z,64.77
2024-03-03T16:21:48.233Z,65.02
2024-03-03T16:24:15.561Z,65.09
2024-03-03T16:26:45.896Z,64.89
2024-03-03T16:29:18.468Z,65.29
2024-03-03T16:31:48.581Z,64.82
2024-03-03T16:34:18.152Z,65.05
2024-03-03T16:36:45.908Z,65.40
2024-03-03T16:39:16.200Z,66.03
2024-03-03T16:41:43.665Z,65.87
2024-03-03T16:44:13.881Z,66.22
2024-03-03T16:46:42.114Z,67.04
2024-03-03T16:49:12.216Z,67.31
2024-03-03T16:51:39.762Z,67.94
2024-03-03T16:54:07.328Z,68.50
2024-03-03T16:56:35.393Z,68.63
2024-03-03T16:59:04.072Z,69.02
2024-03-03T17:01:32.211Z,69.00
2024-03-03T17:04:00.563Z,68.95
2024-03-03T17:06:29.758Z,67.95
2024-03-03T17:08:57.442Z,68.17
2024-03-03T17:11:26.282Z,68.12
2024-03-03T17:13:53.677Z,68.37
2024-03-03T17:16:22.026Z,67.69
2024-03-03T17:18:49.792Z,67.76
2024-03-03T17:21:17.287Z,68.26
2024-03-03T17:23:44.807Z,68.09
2024-03-03T17:26:12.478Z,66.52
2024-03-03T17:28:41.724Z,66.30
2024-03-03T17:31:09.233Z,66.95
2024-03-03T17:33:36.970Z,67.13
2024-03-03T17:36:05.788Z,67.51
2024-03-03T17:38:34.353Z,67.61
2024-03-03T17:41:02.426Z,68.09
2024-03-03T17:43:32.028Z,68.78
2024-03-03T17:46:00.016Z,69.51
2024-03-03T17:48:27.456Z,69.96
2024-03-03T17:50:54.959Z,70.65
2024-03-03T17:53:22.769Z,70.95
2024-03-03T17:55:52.195Z,71.49
2024-03-03T17:58:19.639Z,71.45
2024-03-03T18:00:47.200Z,71.38
2024-03-03T18:03:14.703Z,71.25
2024-03-03T18:05:42.710Z,71.08
2024-03-03T18:08:10.072Z,71.18
2024-03-03T18:10:37.412Z,71.44
2024-03-03T18:13:05.033Z,71.25
2024-03-03T18:15:32.492Z,71.42
2024-03-03T18:17:59.766Z,70.98
2024-03-03T18:20:27.027Z,70.71
2024-03-03T18:22:54.391Z,70.49
2024-03-03T18:25:21.718Z,70.39
2024-03-03T18:27:49.140Z,70.09
2024-03-03T18:30:17.036Z,69.27
2024-03-03T18:32:44.662Z,68.67
2024-03-03T18:35:12.176Z,68.73
2024-03-03T18:37:39.638Z,68.72
2024-03-03T18:40:09.638Z,68.77
2024-03-03T18:42:37.319Z,68.97
2024-03-03T18:45:08.172Z,68.96
2024-03-03T18:47:35.870Z,68.53
2024-03-03T18:50:04.425Z,68.89
2024-03-03T18:52:31.805Z,68.37
2024-03-03T18:55:00.651Z,68.28
2024-03-03T18:57:28.517Z,68.10
2024-03-03T18:59:56.013Z,67.79
2024-03-03T19:02:26.774Z,67.74
2024-03-03T19:04:54.438Z,67.12
2024-03-03T19:07:21.902Z,67.61
2024-03-03T19:09:50.084Z,67.79
2024-03-03T19:12:17.388Z,67.83
2024-03-03T19:14:44.854Z,66.26
2024-03-03T19:17:12.206Z,66.27
2024-03-03T19:19:40.374Z,67.16
2024-03-03T19:22:07.708Z,67.48
2024-03-03T19:24:35.019Z,67.81
2024-03-03T19:27:02.481Z,67.88
2024-03-03T19:29:30.214Z,67.60
2024-03-03T19:31:57.392Z,67.83
2024-03-03T19:34:24.765Z,67.92
2024-03-03T19:36:52.101Z,68.34
2024-03-03T19:39:19.474Z,68.06
2024-03-03T19:41:47.960Z,68.29
2024-03-03T19:44:16.714Z,68.43
2024-03-03T19:46:44.161Z,68.36
2024-03-03T19:49:12.557Z,68.50
2024-03-03T19:51:39.958Z,68.84
2024-03-03T19:54:10.038Z,68.61
2024-03-03T19:56:37.453Z,68.91
2024-03-03T19:59:04.792Z,69.28
2024-03-03T20:01:32.413Z,69.12
2024-03-03T20:03:59.946Z,69.67
2024-03-03T20:06:27.446Z,69.95
2024-03-03T20:08:54.743Z,70.44
2024-03-03T20:11:22.235Z,71.26
2024-03-03T20:13:51.034Z,71.66
2024-03-03T20:16:18.615Z,72.13
2024-03-03T20:18:49.881Z,71.85
2024-03-03T20:21:17.691Z,71.81
2024-03-03T20:23:46.733Z,72.61
2024-03-03T20:26:14.044Z,71.92
2024-03-03T20:28:41.300Z,72.26
2024-03-03T20:31:08.614Z,72.42
2024-03-03T20:33:35.927Z,72.21
2024-03-03T20:36:03.888Z,73.93
2024-03-03T20:38:31.670Z,73.94
2024-03-03T20:40:59.135Z,73.45
2024-03-03T20:43:27.371Z,73.63
2024-03-03T20:45:54.867Z,73.66
2024-03-03T20:48:22.448Z,73.87
2024-03-03T20:50:49.984Z,73.50
2024-03-03T20:53:17.786Z,73.42
2024-03-03T20:55:47.968Z,73.75
2024-03-03T20:58:15.410Z,73.56
2024-03-03T21:00:43.589Z,73.44
2024-03-03T21:03:11.092Z,73.64
2024-03-03T21:05:38.867Z,73.63
2024-03-03T21:08:10.629Z,73.73
2024-03-03T21:10:38.818Z,73.70
2024-03-03T21:13:06.327Z,73.20
2024-03-03T21:15:33.826Z,73.33
2024-03-03T21:18:01.283Z,73.68
2024-03-03T21:20:28.966Z,74.08
2024-03-03T21:22:56.326Z,73.57
2024-03-03T21:25:24.506Z,73.69
2024-03-03T21:27:52.093Z,73.69
2024-03-03T21:30:19.528Z,73.57
2024-03-03T21:32:47.009Z,72.76
2024-03-03T21:35:14.559Z,72.79
2024-03-03T21:37:42.212Z,72.84
2024-03-03T21:40:12.829Z,72.89
2024-03-03T21:42:40.426Z,72.90
2024-03-03T21:45:13.449Z,72.84
2024-03-03T21:47:41.000Z,72.54
2024-03-03T21:50:09.151Z,72.48
2024-03-03T21:52:37.122Z,72.29
2024-03-03T21:55:06.103Z,72.22
2024-03-03T21:57:33.599Z,72.21
2024-03-03T22:00:06.600Z,72.23
2024-03-03T22:02:39.939Z,71.89
2024-03-03T22:05:07.654Z,71.09
2024-03-03T22:07:38.333Z,71.34
2024-03-03T22:10:07.405Z,71.56
2024-03-03T22:12:35.122Z,71.56
2024-03-03T22:15:02.546Z,71.66
2024-03-03T22:17:30.269Z,71.51
2024-03-03T22:19:58.646Z,71.43
2024-03-03T22:22:26.140Z,71.29
2024-03-03T22:24:54.685Z,71.31
2024-03-03T22:27:21.955Z,71.81
2024-03-03T22:29:49.395Z,71.67
2024-03-03T22:32:16.580Z,71.07
2024-03-03T22:34:44.339Z,71.48
2024-03-03T22:37:11.805Z,71.40
2024-03-03T22:39:42.235Z,71.61
2024-03-03T22:42:10.092Z,71.45
2024-03-03T22:44:37.964Z,71.72
2024-03-03T22:47:05.647Z,71.88
2024-03-03T22:49:33.316Z,71.84
2024-03-03T22:52:03.429Z,72.04
2024-03-03T22:54:30.776Z,71.83
2024-03-03T22:57:02.693Z,71.84
2024-03-03T22:59:33.604Z,71.97
2024-03-03T23:02:01.122Z,71.59
2024-03-03T23:04:28.761Z,71.46
2024-03-03T23:06:56.379Z,71.56
2024-03-03T23:09:23.744Z,71.60
2024-03-03T23:11:51.212Z,71.57
2024-03-03T23:14:18.573Z,71.16
2024-03-03T23:16:46.039Z,71.74
2024-03-03T23:19:14.873Z,71.86
2024-03-03T23:21:42.378Z,71.91
2024-03-03T23:24:09.762Z,71.73
2024-03-03T23:26:37.204Z,71.65
2024-03-03T23:29:04.924Z,72.31
2024-03-03T23:31:32.625Z,72.28
2024-03-03T23:34:00.180Z,72.09
2024-03-03T23:36:27.777Z,72.15
2024-03-03T23:38:58.104Z,72.41
2024-03-03T23:47:29.425Z,72.55
2024-03-03T23:49:56.932Z,72.84
2024-03-03T23:52:24.359Z,72.74
2024-03-03T23:54:51.647Z,72.69
2024-03-03T23:57:21.251Z,72.55
2024-03-03T23:59:48.549Z,72.94
